Time;durP1;ratioP1;P1;durP2;ratioP2;P2;SDS_P1;SDS_P2;PMS_P1;PMS_P2;Temp;Humidity;BMP_temperature;BMP_pressure;BME280_temperature;BME280_humidity;BME280_pressure;Samples;Min_cycle;Max_cycle;Signal;HPM_P1;HPM_P2
2022/05/14 00:01:11;;;;;;;8.50;5.60;;;;;;;17.03;75.95;98917.29;1694677;83;21479;-80
2022/05/14 00:03:38;;;;;;;12.95;5.65;;;;;;;17.03;75.76;98922.98;1735899;81;21021;-80
2022/05/14 00:06:09;;;;;;;15.10;6.72;;;;;;;17.05;75.22;98927.24;1757622;81;21451;-81
2022/05/14 00:08:37;;;;;;;13.20;6.25;;;;;;;17.05;76.82;98914.11;1758615;81;21586;-78
2022/05/14 00:13:50;;;;;;;11.18;6.80;;;;;;;17.03;76.00;98922.98;1705246;83;20986;-79
2022/05/14 00:16:19;;;;;;;13.45;6.10;;;;;;;16.97;76.58;98928.13;1719238;82;21074;-78
2022/05/14 00:18:46;;;;;;;11.63;6.37;;;;;;;16.90;76.84;98921.50;1724033;82;21030;-80
2022/05/14 00:21:14;;;;;;;15.93;7.42;;;;;;;16.84;76.59;98921.83;1735963;82;21074;-78
2022/05/14 00:23:40;;;;;;;13.18;7.35;;;;;;;16.78;77.54;98917.72;1740237;82;21011;-78
2022/05/14 00:26:07;;;;;;;12.73;6.70;;;;;;;16.74;76.33;98923.22;1738109;82;21038;-78
2022/05/14 00:28:34;;;;;;;9.95;6.65;;;;;;;16.66;75.41;98920.53;1721627;82;21304;-79
2022/05/14 00:31:01;;;;;;;15.60;7.30;;;;;;;16.58;78.96;98920.56;1739827;82;21561;-78
2022/05/14 00:33:28;;;;;;;13.28;6.90;;;;;;;16.56;76.20;98932.91;1719241;82;21014;-78
2022/05/14 00:35:54;;;;;;;9.28;6.25;;;;;;;16.47;76.63;98927.66;1740126;82;21019;-79
2022/05/14 00:38:21;;;;;;;12.78;7.03;;;;;;;16.44;78.21;98930.46;1731709;82;21019;-79
2022/05/14 00:41:01;;;;;;;13.45;6.15;;;;;;;16.38;79.97;98926.84;1726036;82;21080;-78
2022/05/14 00:43:30;;;;;;;11.30;6.70;;;;;;;16.36;78.57;98925.61;1723010;83;21007;-79
2022/05/14 00:46:17;;;;;;;11.70;6.40;;;;;;;16.36;78.91;98926.92;1743070;81;21091;-78
2022/05/14 00:48:45;;;;;;;10.43;6.42;;;;;;;16.37;79.60;98918.58;1758801;81;21118;-78
2022/05/14 00:51:18;;;;;;;13.45;6.60;;;;;;;16.37;77.71;98923.34;1759232;81;20931;-78
2022/05/14 00:53:50;;;;;;;17.45;7.33;;;;;;;16.36;79.42;98932.64;1745844;81;21085;-79
2022/05/14 00:56:22;;;;;;;11.30;7.00;;;;;;;16.34;79.26;98935.33;1719149;82;21530;-78
2022/05/14 00:59:06;;;;;;;10.40;6.90;;;;;;;16.34;78.33;98935.33;1704988;81;21048;-78
2022/05/14 01:01:35;;;;;;;13.08;7.00;;;;;;;16.32;79.09;98931.94;1753751;81;21022;-77
2022/05/14 01:04:03;;;;;;;15.43;6.80;;;;;;;16.31;78.08;98932.85;1747927;82;20994;-78
2022/05/14 01:06:33;;;;;;;11.40;6.62;;;;;;;16.29;78.80;98933.39;1760729;81;21018;-78
2022/05/14 01:09:04;;;;;;;11.40;7.28;;;;;;;16.28;78.60;98929.09;1760681;81;21027;-79
2022/05/14 01:11:29;;;;;;;13.32;7.75;;;;;;;16.27;78.29;98933.94;1760455;81;20988;-79
2022/05/14 01:13:56;;;;;;;10.65;7.08;;;;;;;16.24;78.61;98934.11;1760565;81;21031;-78
2022/05/14 01:16:24;;;;;;;19.10;7.72;;;;;;;16.20;78.15;98932.57;1760622;81;21546;-78
2022/05/14 01:18:51;;;;;;;11.83;7.80;;;;;;;16.16;78.62;98935.80;1760391;81;20999;-78
2022/05/14 01:21:51;;;;;;;12.93;7.28;;;;;;;16.14;78.96;98930.26;1760525;81;21027;-78
2022/05/14 01:27:29;;;;;;;11.50;7.67;;;;;;;16.10;79.16;98928.25;1760265;81;21015;-78
2022/05/14 01:29:56;;;;;;;12.78;7.45;;;;;;;16.08;78.94;98932.25;1760475;81;21034;-79
2022/05/14 01:32:23;;;;;;;14.55;7.75;;;;;;;16.05;78.28;98937.64;1760393;81;21007;-80
2022/05/14 01:34:50;;;;;;;14.43;7.75;;;;;;;16.02;78.70;98933.03;1760330;81;21510;-78
2022/05/14 01:37:18;;;;;;;14.95;8.43;;;;;;;16.00;78.15;98938.81;1753813;81;21518;-79
2022/05/14 01:39:45;;;;;;;13.90;7.58;;;;;;;15.95;77.48;98940.80;1747527;82;21067;-79
2022/05/14 01:42:12;;;;;;;11.60;7.28;;;;;;;15.90;77.91;98940.57;1747820;82;21073;-79
2022/05/14 01:44:39;;;;;;;12.93;7.50;;;;;;;15.87;78.50;98939.88;1747449;82;21030;-79
2022/05/14 01:47:05;;;;;;;12.15;6.45;;;;;;;15.85;78.29;98940.41;1747868;82;20993;-79
2022/05/14 01:49:32;;;;;;;11.70;7.28;;;;;;;15.85;77.18;98936.48;1747754;82;21026;-79
2022/05/14 01:52:00;;;;;;;15.70;6.95;;;;;;;15.85;78.13;98939.09;1747642;82;21097;-78
2022/05/14 01:54:26;;;;;;;14.20;6.47;;;;;;;15.87;77.72;98943.80;1748070;82;20987;-79
2022/05/14 01:56:53;;;;;;;12.75;7.50;;;;;;;15.90;77.98;98937.95;1732786;82;21530;-79
2022/05/14 01:59:21;;;;;;;10.95;7.10;;;;;;;15.95;78.72;98934.25;1747778;82;21031;-79
2022/05/14 02:01:47;;;;;;;12.82;7.17;;;;;;;16.00;78.84;98933.10;1732812;82;21069;-79
2022/05/14 02:04:16;;;;;;;17.80;7.00;;;;;;;16.01;78.30;98937.88;1747634;82;21018;-79
2022/05/14 02:06:44;;;;;;;13.30;7.08;;;;;;;16.03;78.69;98935.55;1747630;82;20998;-77
2022/05/14 02:09:13;;;;;;;11.93;6.78;;;;;;;16.08;78.62;98944.52;1747917;82;20983;-80
2022/05/14 02:11:42;;;;;;;13.15;7.00;;;;;;;16.07;78.59;98939.72;1747462;82;21037;-78
2022/05/14 02:14:11;;;;;;;13.62;7.00;;;;;;;16.07;80.01;98941.03;1747421;82;21044;-79
2022/05/14 02:16:39;;;;;;;13.22;6.90;;;;;;;16.09;80.65;98939.65;1747659;81;21053;-79
2022/05/14 02:19:06;;;;;;;12.20;6.90;;;;;;;16.12;80.70;98947.38;1747756;82;21572;-79
2022/05/14 02:21:34;;;;;;;11.55;6.72;;;;;;;16.19;80.59;98946.59;1747709;82;21068;-78
2022/05/14 02:24:01;;;;;;;18.32;7.00;;;;;;;16.20;80.22;98951.77;1747863;82;20990;-79
2022/05/14 02:26:28;;;;;;;18.80;7.87;;;;;;;16.21;80.29;98956.55;1747607;82;21018;-79
2022/05/14 02:28:55;;;;;;;14.68;8.38;;;;;;;16.22;79.84;98955.63;1747653;82;20974;-79
2022/05/14 02:31:22;;;;;;;14.13;6.85;;;;;;;16.23;79.33;98957.31;1760292;81;21040;-79
2022/05/14 02:33:49;;;;;;;14.98;7.67;;;;;;;16.16;79.13;98958.56;1734516;82;21002;-80
2022/05/14 02:36:18;;;;;;;20.37;8.10;;;;;;;16.07;78.74;98956.77;1752539;81;20995;-79
2022/05/14 02:38:45;;;;;;;16.45;8.05;;;;;;;15.99;78.42;98960.23;1760174;81;21009;-79
2022/05/14 02:41:13;;;;;;;17.25;8.18;;;;;;;15.91;78.27;98961.08;1760099;81;21047;-78
2022/05/14 02:43:42;;;;;;;19.55;9.00;;;;;;;15.84;77.53;98968.88;1760201;81;21082;-79
2022/05/14 02:46:12;;;;;;;18.25;10.43;;;;;;;15.73;77.51;98969.84;1760218;81;20998;-79
2022/05/14 02:48:39;;;;;;;19.60;11.43;;;;;;;15.64;78.23;98964.09;1719047;81;20986;-79
2022/05/14 02:51:06;;;;;;;18.65;10.80;;;;;;;15.56;78.35;98960.99;1760224;81;21046;-78
2022/05/14 02:53:33;;;;;;;19.80;11.12;;;;;;;15.48;77.64;98957.42;1760294;81;21488;-80
2022/05/14 02:56:00;;;;;;;17.17;10.72;;;;;;;15.42;77.24;98964.70;1760383;81;21062;-79
2022/05/14 03:01:13;;;;;;;19.75;9.80;;;;;;;15.31;78.85;98964.75;1717832;82;21137;-79
2022/05/14 03:03:40;;;;;;;20.45;10.40;;;;;;;15.28;79.65;98968.84;1744979;81;21455;-79
2022/05/14 03:06:08;;;;;;;20.25;10.20;;;;;;;15.25;80.00;98968.96;1754591;81;21022;-79
2022/05/14 03:08:36;;;;;;;20.23;9.75;;;;;;;15.23;82.35;98966.03;1754243;81;20979;-79
2022/05/14 03:11:04;;;;;;;18.65;9.83;;;;;;;15.22;80.19;98959.95;1726792;82;21511;-79
2022/05/14 03:13:31;;;;;;;15.95;9.08;;;;;;;15.23;79.88;98962.95;1761014;81;21077;-80
2022/05/14 03:15:58;;;;;;;14.68;8.88;;;;;;;15.24;80.91;98967.72;1761397;81;20975;-78
2022/05/14 03:18:25;;;;;;;17.20;8.93;;;;;;;15.28;80.16;98964.06;1761447;81;21030;-79
2022/05/14 03:20:52;;;;;;;17.60;9.10;;;;;;;15.33;80.32;98971.70;1761490;81;20991;-79
2022/05/14 03:23:19;;;;;;;15.70;9.05;;;;;;;15.39;80.32;98973.56;1761535;81;21064;-79
2022/05/14 03:25:46;;;;;;;14.85;8.15;;;;;;;15.46;80.64;98972.83;1761430;81;20990;-79
2022/05/14 03:28:13;;;;;;;16.12;8.45;;;;;;;15.53;80.39;98976.84;1761436;81;21032;-79
2022/05/14 03:30:41;;;;;;;19.45;8.43;;;;;;;15.58;80.57;98973.56;1760823;81;20964;-81
2022/05/14 03:33:08;;;;;;;13.15;7.33;;;;;;;15.64;79.93;98981.13;1760879;81;21515;-77
2022/05/14 03:35:35;;;;;;;17.07;8.73;;;;;;;15.75;80.01;98978.48;1760837;81;21514;-77
2022/05/14 03:38:02;;;;;;;15.93;8.45;;;;;;;15.88;79.97;98978.28;1760973;81;21098;-79
2022/05/14 03:40:29;;;;;;;22.25;8.90;;;;;;;16.01;79.42;98981.98;1760878;81;21039;-78
2022/05/14 03:42:56;;;;;;;23.52;9.25;;;;;;;16.12;79.73;98983.25;1760883;81;21114;-78
2022/05/14 03:45:23;;;;;;;12.40;7.97;;;;;;;16.22;79.18;98981.39;1760989;81;21050;-80
2022/05/14 03:47:49;;;;;;;19.30;9.33;;;;;;;16.32;78.20;98985.72;1760938;81;21011;-79
2022/05/14 03:50:16;;;;;;;27.32;8.83;;;;;;;16.41;78.72;98989.64;1760850;81;21011;-78
2022/05/14 03:52:43;;;;;;;20.62;9.55;;;;;;;16.48;77.99;98988.41;1760809;81;21098;-79
2022/05/14 03:55:10;;;;;;;23.75;9.10;;;;;;;16.56;78.55;98991.48;1760937;81;21522;-79
2022/05/14 03:57:37;;;;;;;20.57;8.88;;;;;;;16.65;77.73;99000.66;1752915;81;20999;-78
2022/05/14 04:00:08;;;;;;;12.50;8.33;;;;;;;16.65;76.62;99005.91;1733532;82;21554;-80
2022/05/14 04:02:37;;;;;;;13.00;7.87;;;;;;;16.67;76.45;99015.86;1759928;81;21059;-79
2022/05/14 04:05:05;;;;;;;18.30;8.68;;;;;;;16.65;76.56;99026.91;1754254;81;21489;-80
2022/05/14 04:07:32;;;;;;;14.28;7.78;;;;;;;16.65;77.57;99021.66;1748936;81;21534;-79
2022/05/14 04:09:59;;;;;;;13.25;6.95;;;;;;;16.69;76.25;99025.81;1747901;82;20991;-80
2022/05/14 04:12:27;;;;;;;11.78;6.95;;;;;;;16.63;76.82;99036.63;1743088;82;21006;-79
2022/05/14 04:14:54;;;;;;;10.82;6.03;;;;;;;16.56;76.87;99033.48;1739521;82;21139;-80
2022/05/14 04:17:21;;;;;;;13.22;6.90;;;;;;;16.50;76.88;99033.32;1717417;83;21031;-78
2022/05/14 04:19:48;;;;;;;10.38;6.12;;;;;;;16.54;76.60;99042.36;1691039;83;21026;-79
2022/05/14 04:22:15;;;;;;;11.20;5.85;;;;;;;16.55;76.83;99044.05;1747327;81;21007;-79
2022/05/14 04:24:42;;;;;;;19.45;6.20;;;;;;;16.58;76.82;99044.75;1760310;81;21046;-79
2022/05/14 04:27:09;;;;;;;14.73;6.42;;;;;;;16.67;76.62;99053.48;1755829;81;21535;-79
2022/05/14 04:29:36;;;;;;;9.33;5.58;;;;;;;16.75;76.45;99050.47;1758061;81;21112;-80
2022/05/14 04:32:03;;;;;;;9.83;6.50;;;;;;;16.86;76.32;99050.78;1748184;82;21044;-79
2022/05/14 04:34:30;;;;;;;12.75;6.10;;;;;;;16.96;76.23;99041.96;1760765;81;21110;-79
2022/05/14 04:36:57;;;;;;;11.25;6.72;;;;;;;17.02;76.11;99037.70;1760614;81;20995;-79
2022/05/14 04:39:31;;;;;;;13.43;7.42;;;;;;;17.12;75.90;99044.63;1760446;81;21002;-79
2022/05/14 04:41:52;;;;;;;15.85;7.33;;;;;;;17.17;75.08;99040.44;1758917;81;21039;-79
2022/05/14 04:44:19;;;;;;;16.48;8.13;;;;;;;17.15;75.64;99037.92;1760483;81;21042;-80
2022/05/14 04:46:45;;;;;;;16.70;8.10;;;;;;;17.19;75.54;99040.77;1752563;81;20975;-79
2022/05/14 04:49:12;;;;;;;22.37;8.00;;;;;;;17.22;75.28;99031.39;1763000;81;21078;-79
2022/05/14 04:51:40;;;;;;;16.50;8.18;;;;;;;17.23;75.02;99031.79;1763175;81;21015;-80
2022/05/14 04:54:07;;;;;;;14.73;8.35;;;;;;;17.25;74.37;99033.87;1763030;81;21003;-79
2022/05/14 04:56:33;;;;;;;14.93;8.15;;;;;;;17.26;74.86;99042.11;1747619;81;21022;-79
2022/05/14 04:59:00;;;;;;;14.07;8.48;;;;;;;17.26;75.26;99035.55;1735918;81;21002;-79
2022/05/14 05:01:27;;;;;;;14.03;7.50;;;;;;;17.28;74.68;99040.25;1760832;81;21011;-79
2022/05/14 05:03:54;;;;;;;13.68;7.53;;;;;;;17.26;75.28;99050.00;1760898;81;22105;-79
2022/05/14 05:06:23;;;;;;;13.80;8.28;;;;;;;17.32;75.31;99047.98;1760858;81;21098;-79
2022/05/14 05:08:55;;;;;;;15.15;7.78;;;;;;;17.37;75.09;99045.94;1761090;81;21678;-79
2022/05/14 05:11:20;;;;;;;13.00;7.80;;;;;;;17.40;75.50;99047.11;1760015;81;21016;-80
2022/05/14 05:13:47;;;;;;;19.05;8.25;;;;;;;17.43;75.49;99046.95;1760793;81;21015;-80
2022/05/14 05:16:14;;;;;;;16.52;8.58;;;;;;;17.47;75.58;99045.86;1760825;81;21078;-79
2022/05/14 05:18:41;;;;;;;18.45;8.93;;;;;;;17.55;75.59;99044.09;1760938;81;21001;-79
2022/05/14 05:21:08;;;;;;;22.05;8.55;;;;;;;17.62;75.43;99043.69;1761131;81;21535;-79
2022/05/14 05:23:35;;;;;;;18.12;9.05;;;;;;;17.72;75.28;99041.88;1760987;81;21078;-79
2022/05/14 05:26:01;;;;;;;15.95;9.78;;;;;;;17.86;75.23;99040.66;1761916;81;21011;-78
2022/05/14 05:28:28;;;;;;;19.50;10.58;;;;;;;17.94;75.10;99037.14;1764901;81;21029;-79
2022/05/14 05:30:56;;;;;;;11.65;8.23;;;;;;;18.05;74.96;99038.70;1762815;81;21046;-79
2022/05/14 05:33:25;;;;;;;16.55;8.33;;;;;;;18.16;74.64;99028.88;1761343;81;21038;-78
2022/05/14 05:35:52;;;;;;;14.68;8.18;;;;;;;18.23;74.00;99032.02;1761270;81;20995;-79
2022/05/14 05:38:19;;;;;;;17.48;8.70;;;;;;;18.25;73.71;99031.46;1761225;81;21499;-79
2022/05/14 05:40:45;;;;;;;17.80;8.88;;;;;;;18.32;73.44;99039.84;1760645;81;21077;-80
2022/05/14 05:43:12;;;;;;;15.80;8.80;;;;;;;18.35;73.43;99037.88;1760653;81;21036;-81
2022/05/14 05:45:43;;;;;;;17.75;10.05;;;;;;;18.37;73.45;99037.80;1735956;82;21010;-78
2022/05/14 05:48:10;;;;;;;13.53;9.75;;;;;;;18.41;73.79;99044.10;1750042;81;22072;-79
2022/05/14 05:50:38;;;;;;;15.23;7.92;;;;;;;18.49;73.57;99051.08;1761189;81;20988;-79
2022/05/14 05:53:06;;;;;;;13.83;8.18;;;;;;;18.56;73.31;99048.95;1761266;81;21003;-79
2022/05/14 05:58:19;;;;;;;11.83;7.17;;;;;;;18.74;72.50;99055.37;1761110;81;21038;-79
2022/05/14 06:00:47;;;;;;;11.73;6.53;;;;;;;18.80;72.59;99051.08;1756523;81;21115;-79
2022/05/14 06:03:14;;;;;;;11.85;6.80;;;;;;;18.88;72.36;99054.97;1713969;83;22086;-79
2022/05/14 06:05:41;;;;;;;18.12;6.80;;;;;;;18.96;72.33;99054.97;1747870;82;21097;-79
2022/05/14 06:08:16;;;;;;;16.17;7.80;;;;;;;19.02;71.79;99052.83;1761027;81;21042;-79
2022/05/14 06:10:43;;;;;;;14.60;7.67;;;;;;;19.07;71.86;99051.22;1760736;81;21031;-81
2022/05/14 06:13:10;;;;;;;11.93;7.65;;;;;;;19.15;71.62;99041.05;1761131;81;21019;-79
2022/05/14 06:15:39;;;;;;;19.75;8.43;;;;;;;19.27;71.18;99042.09;1761216;81;21121;-79
2022/05/14 06:18:07;;;;;;;15.53;8.50;;;;;;;19.34;71.07;99039.91;1761194;81;21058;-79
2022/05/14 06:20:36;;;;;;;18.07;9.35;;;;;;;19.42;71.00;99040.31;1760950;81;21039;-79
2022/05/14 06:23:03;;;;;;;13.98;8.50;;;;;;;19.51;70.59;99042.35;1757930;81;21056;-79
2022/05/14 06:25:30;;;;;;;14.65;8.40;;;;;;;19.55;70.25;99037.73;1753683;81;21024;-80
2022/05/14 06:27:56;;;;;;;20.62;8.50;;;;;;;19.60;69.92;99036.52;1744446;82;20974;-79
2022/05/14 06:30:23;;;;;;;17.12;8.23;;;;;;;19.66;69.67;99045.34;1736490;81;21498;-79
2022/05/14 06:32:49;;;;;;;16.12;6.72;;;;;;;19.74;69.37;99036.15;1761056;81;21034;-79
2022/05/14 06:35:17;;;;;;;12.28;6.37;;;;;;;19.83;69.15;99043.45;1761039;81;21064;-80
2022/05/14 06:37:46;;;;;;;12.80;7.20;;;;;;;19.91;68.98;99033.73;1755684;81;21506;-79
2022/05/14 06:40:12;;;;;;;12.73;7.10;;;;;;;19.99;68.37;99038.88;1760934;81;21520;-79
2022/05/14 06:42:39;;;;;;;11.45;6.92;;;;;;;20.05;67.97;99038.50;1742898;81;21499;-79
2022/05/14 06:45:07;;;;;;;11.55;6.75;;;;;;;20.13;67.72;99037.14;1723278;82;21045;-79
2022/05/14 06:47:34;;;;;;;14.33;7.33;;;;;;;20.23;67.72;99038.22;1740931;82;21026;-79
2022/05/14 06:50:00;;;;;;;10.93;6.12;;;;;;;20.33;67.26;99042.42;1740918;82;21056;-79
2022/05/14 06:52:28;;;;;;;16.82;9.48;;;;;;;20.42;66.64;99041.34;1740846;82;22292;-79
2022/05/14 06:54:56;;;;;;;19.80;9.08;;;;;;;20.45;66.02;99036.32;1740993;82;21050;-79
2022/05/14 06:57:23;;;;;;;16.40;8.58;;;;;;;20.54;66.25;99042.80;1736934;82;21069;-79
2022/05/14 06:59:50;;;;;;;15.15;7.85;;;;;;;20.59;66.10;99032.34;1715672;83;21082;-79
2022/05/14 07:02:18;;;;;;;10.53;6.28;;;;;;;20.69;66.05;99036.53;1750213;82;21027;-79
2022/05/14 07:07:31;;;;;;;13.18;6.10;;;;;;;20.88;65.47;99029.98;1757605;82;20987;-81
2022/05/14 07:09:59;;;;;;;9.63;6.67;;;;;;;20.98;65.60;99029.23;1757647;82;21534;-80
2022/05/14 07:12:26;;;;;;;16.67;6.25;;;;;;;21.08;65.04;99034.73;1757571;82;21027;-79
2022/05/14 07:14:54;;;;;;;12.50;7.12;;;;;;;21.15;64.73;99027.20;1757538;82;21024;-79
2022/05/14 07:17:21;;;;;;;13.55;7.05;;;;;;;21.24;64.39;99031.86;1757556;82;21028;-78
2022/05/14 07:19:49;;;;;;;12.47;6.60;;;;;;;21.32;63.09;99024.23;1757460;82;21044;-79
2022/05/14 07:22:16;;;;;;;12.90;6.95;;;;;;;21.38;63.05;99026.92;1757533;82;21027;-79
2022/05/14 07:24:43;;;;;;;9.80;5.87;;;;;;;21.44;61.94;99030.00;1735326;82;20980;-79
2022/05/14 07:27:11;;;;;;;12.05;5.70;;;;;;;21.42;62.10;99031.03;1741904;82;21025;-79
2022/05/14 07:29:40;;;;;;;11.75;5.90;;;;;;;21.45;62.08;99031.70;1710193;82;21007;-79
2022/05/14 07:32:10;;;;;;;12.53;6.05;;;;;;;21.49;62.23;99031.02;1740674;82;20972;-80
2022/05/14 07:34:39;;;;;;;8.18;5.30;;;;;;;21.52;61.04;99033.91;1757508;82;21477;-80
2022/05/14 07:37:27;;;;;;;10.65;6.00;;;;;;;21.61;61.38;99031.45;1757638;82;21013;-80
2022/05/14 07:40:05;;;;;;;11.35;4.90;;;;;;;21.75;61.37;99041.53;1757114;81;21026;-81
2022/05/14 07:42:39;;;;;;;11.50;5.37;;;;;;;21.87;60.75;99036.67;1748221;81;21046;-79
2022/05/14 07:45:09;;;;;;;10.30;5.72;;;;;;;21.95;59.80;99030.82;1739848;82;21002;-79
2022/05/14 07:47:36;;;;;;;11.40;5.40;;;;;;;22.03;60.02;99029.78;1757733;82;20996;-78
2022/05/14 07:50:05;;;;;;;14.28;5.50;;;;;;;22.15;60.07;99031.52;1757638;82;21032;-80
2022/05/14 07:52:32;;;;;;;6.37;4.67;;;;;;;22.33;60.16;99031.14;1750219;82;21000;-78
2022/05/14 07:54:58;;;;;;;9.48;4.75;;;;;;;22.49;60.07;99030.84;1725928;82;21006;-79
2022/05/14 07:57:24;;;;;;;8.38;4.90;;;;;;;22.64;58.54;99033.17;1738801;82;21004;-79
2022/05/14 07:59:51;;;;;;;9.40;5.55;;;;;;;22.74;58.98;99032.45;1741810;82;20976;-79
2022/05/14 08:02:26;;;;;;;8.03;4.85;;;;;;;22.84;58.83;99027.67;1741799;82;20980;-79
2022/05/14 08:04:53;;;;;;;8.10;4.85;;;;;;;22.98;57.10;99033.23;1741717;82;21330;-79
2022/05/14 08:07:20;;;;;;;8.78;4.65;;;;;;;22.92;56.48;99032.38;1740409;82;20996;-80
2022/05/14 08:09:47;;;;;;;11.33;5.00;;;;;;;22.97;57.16;99031.53;1707916;82;21019;-79
2022/05/14 08:12:13;;;;;;;7.03;4.62;;;;;;;23.10;57.22;99035.45;1728126;82;21507;-79
2022/05/14 08:14:41;;;;;;;11.88;5.10;;;;;;;23.16;55.01;99035.45;1739322;82;21028;-79
2022/05/14 08:17:10;;;;;;;8.48;4.42;;;;;;;23.24;56.33;99039.67;1759431;81;21019;-79
2022/05/14 08:19:37;;;;;;;10.18;4.05;;;;;;;23.34;55.83;99029.19;1738405;82;21035;-79
2022/05/14 08:24:49;;;;;;;8.20;3.98;;;;;;;23.54;55.17;99032.41;1753985;81;21364;-79
2022/05/14 08:27:17;;;;;;;10.40;3.90;;;;;;;23.60;54.23;99029.77;1733732;82;21014;-79
2022/05/14 08:29:48;;;;;;;6.85;3.77;;;;;;;23.69;53.64;99029.00;1735130;82;21049;-79
2022/05/14 08:32:20;;;;;;;6.30;3.90;;;;;;;23.78;52.29;99024.81;1739396;82;21027;-77
2022/05/14 08:34:48;;;;;;;7.25;4.10;;;;;;;23.85;52.42;99025.14;1727593;83;21020;-78
2022/05/14 08:37:15;;;;;;;6.10;3.60;;;;;;;23.89;50.83;99019.95;1739266;82;20967;-78
2022/05/14 08:39:41;;;;;;;5.70;3.30;;;;;;;23.88;51.33;99031.55;1737799;82;22212;-78
2022/05/14 08:42:10;;;;;;;6.10;3.80;;;;;;;23.91;47.95;99023.32;1710057;82;21098;-77
2022/05/14 08:44:39;;;;;;;9.18;3.62;;;;;;;23.98;47.32;99028.01;1730268;82;21014;-77
2022/05/14 08:47:11;;;;;;;8.30;3.77;;;;;;;24.08;49.55;99030.75;1730572;82;21030;-78
2022/05/14 08:49:49;;;;;;;4.65;3.02;;;;;;;24.23;48.77;99031.29;1719300;82;21005;-78
2022/05/14 08:52:24;;;;;;;5.08;3.15;;;;;;;24.35;48.83;99028.97;1737758;81;21473;-78
2022/05/14 08:54:55;;;;;;;6.87;2.87;;;;;;;24.52;48.46;99024.91;1756614;81;21018;-78
2022/05/14 08:57:33;;;;;;;7.42;2.67;;;;;;;24.71;46.78;99026.01;1758685;81;21051;-78
2022/05/14 09:00:02;;;;;;;4.55;2.58;;;;;;;24.93;46.12;99023.22;1721381;83;21672;-78
2022/05/14 09:02:34;;;;;;;8.60;2.87;;;;;;;25.11;45.08;99023.45;1757626;81;21042;-78
2022/05/14 09:05:06;;;;;;;5.62;2.83;;;;;;;25.22;43.97;99026.53;1725550;82;21546;-78
2022/05/14 09:07:34;;;;;;;4.92;2.98;;;;;;;25.35;45.91;99024.98;1731243;82;21080;-78
2022/05/14 09:10:06;;;;;;;8.40;2.70;;;;;;;25.58;45.89;99019.78;1723422;82;20991;-79
2022/05/14 09:12:37;;;;;;;7.25;2.62;;;;;;;25.84;45.46;99025.11;1737466;82;21063;-78
2022/05/14 09:15:12;;;;;;;9.18;2.90;;;;;;;26.09;45.23;99018.45;1722780;82;21023;-78
2022/05/14 09:17:39;;;;;;;6.45;3.05;;;;;;;26.26;44.43;99020.42;1739384;82;21048;-78
2022/05/14 09:20:07;;;;;;;7.25;2.72;;;;;;;26.38;43.61;99022.42;1747954;81;22030;-78
2022/05/14 09:22:47;;;;;;;6.58;2.77;;;;;;;26.49;43.46;99021.45;1753752;81;21023;-78
2022/05/14 09:25:25;;;;;;;11.68;3.10;;;;;;;26.50;44.04;99017.32;1746804;81;21009;-78
2022/05/14 09:27:59;;;;;;;6.05;2.95;;;;;;;26.54;44.03;99016.52;1749130;81;21023;-78
2022/05/14 09:30:39;;;;;;;6.17;2.50;;;;;;;26.59;43.49;99018.31;1759179;81;20999;-78
2022/05/14 09:33:11;;;;;;;5.17;2.55;;;;;;;26.61;42.53;99016.34;1733132;81;21003;-78
2022/05/14 09:35:38;;;;;;;6.35;2.80;;;;;;;26.73;42.63;99007.69;1753586;81;21024;-78
2022/05/14 09:38:12;;;;;;;5.75;2.65;;;;;;;26.85;42.04;99011.03;1754452;81;21003;-78
2022/05/14 09:40:40;;;;;;;8.48;3.15;;;;;;;26.98;41.60;99009.73;1734076;81;21031;-80
2022/05/14 09:43:22;;;;;;;7.15;3.30;;;;;;;26.91;41.59;99014.45;1733997;82;21645;-80
2022/05/14 09:46:03;;;;;;;6.70;3.08;;;;;;;26.76;41.43;99000.75;1735729;82;21002;-80
2022/05/14 09:48:47;;;;;;;7.70;2.98;;;;;;;26.74;41.01;99000.89;1757750;81;21490;-78
2022/05/14 09:51:30;;;;;;;4.28;2.50;;;;;;;26.68;41.07;98999.27;1759039;81;20997;-77
2022/05/14 09:54:23;;;;;;;4.33;2.75;;;;;;;26.66;37.09;99002.57;1739905;81;21051;-79
2022/05/14 09:57:12;;;;;;;3.92;2.40;;;;;;;26.63;38.25;99009.04;1759150;81;21688;-78
2022/05/14 10:00:09;;;;;;;3.90;2.20;;;;;;;26.68;38.32;98997.94;1729189;82;21720;-78
2022/05/14 10:03:06;;;;;;;5.20;2.40;;;;;;;26.77;38.90;99008.58;1738244;81;20956;-78
2022/05/14 10:06:04;;;;;;;7.12;2.47;;;;;;;26.93;39.22;99001.81;1759718;81;21018;-78
2022/05/14 10:09:19;;;;;;;4.42;2.33;;;;;;;27.01;39.22;98992.58;1764154;79;21004;-78
2022/05/14 10:11:53;;;;;;;4.28;2.20;;;;;;;27.28;38.75;98992.31;1763840;79;21035;-79
2022/05/14 10:14:32;;;;;;;5.05;2.70;;;;;;;27.38;38.89;98986.42;1761214;81;21086;-78
2022/05/14 10:17:31;;;;;;;6.95;2.40;;;;;;;27.53;38.86;98991.59;1736488;81;21041;-78
2022/05/14 10:20:23;;;;;;;8.43;2.60;;;;;;;27.63;36.19;98993.37;1760478;81;21007;-79
2022/05/14 10:29:20;;;;;;;10.45;2.55;;;;;;;28.43;35.76;98990.33;1760378;81;22234;-79
2022/05/14 10:32:10;;;;;;;4.28;2.50;;;;;;;28.83;35.54;98988.09;1760314;81;20961;-78
2022/05/14 10:35:02;;;;;;;3.80;2.60;;;;;;;28.88;35.39;98982.61;1759748;81;21522;-78
2022/05/14 10:37:58;;;;;;;9.85;2.70;;;;;;;28.76;34.58;98988.73;1760860;81;21030;-80
2022/05/14 10:40:33;;;;;;;5.80;2.37;;;;;;;28.55;33.91;98989.58;1760312;81;21082;-78
2022/05/14 10:43:18;;;;;;;6.83;2.40;;;;;;;28.25;34.59;98990.83;1760458;81;21139;-79
2022/05/14 10:45:47;;;;;;;6.42;2.17;;;;;;;27.70;34.87;98985.12;1760599;81;21074;-79
2022/05/14 10:48:50;;;;;;;4.72;2.40;;;;;;;27.43;35.81;98981.97;1760686;81;21567;-79
2022/05/14 10:51:27;;;;;;;5.53;2.58;;;;;;;27.28;36.36;98977.63;1755351;81;21025;-77
2022/05/14 10:53:56;;;;;;;4.17;2.45;;;;;;;27.14;36.47;98982.93;1747713;82;21089;-78
2022/05/14 10:56:32;;;;;;;3.47;2.40;;;;;;;26.98;36.59;98986.22;1757686;81;20999;-79
2022/05/14 10:59:12;;;;;;;6.37;2.30;;;;;;;26.86;37.17;98986.89;1722361;82;21042;-78
2022/05/14 11:01:58;;;;;;;3.52;2.30;;;;;;;26.64;37.65;98994.73;1714904;83;21038;-78
2022/05/14 11:04:42;;;;;;;5.00;2.55;;;;;;;26.46;38.09;98997.73;1716415;82;21030;-78
2022/05/14 11:07:15;;;;;;;4.83;2.50;;;;;;;26.28;38.36;99006.47;1716525;83;21121;-77
2022/05/14 11:09:49;;;;;;;8.40;2.85;;;;;;;25.99;39.29;99015.28;1716432;82;21037;-78
2022/05/14 11:12:24;;;;;;;5.17;2.75;;;;;;;25.69;40.56;99014.02;1716542;83;21038;-78
2022/05/14 11:14:56;;;;;;;8.13;2.77;;;;;;;25.46;41.07;99025.36;1718489;82;21099;-78
2022/05/14 11:17:32;;;;;;;7.67;3.00;;;;;;;24.95;44.72;99029.25;1718196;83;21137;-78
2022/05/14 11:20:15;;;;;;;6.80;2.92;;;;;;;24.06;49.77;99030.53;1718100;83;21002;-78
2022/05/14 11:22:52;;;;;;;7.67;3.45;;;;;;;23.36;52.10;99040.52;1718517;82;21554;-78
2022/05/14 11:25:24;;;;;;;13.72;3.25;;;;;;;22.91;51.60;99039.13;1703812;83;21513;-80
2022/05/14 11:28:11;;;;;;;9.10;3.60;;;;;;;22.57;53.96;99033.26;1718667;82;21048;-76
2022/05/14 11:30:49;;;;;;;6.75;3.02;;;;;;;22.37;53.38;99022.01;1718558;82;20977;-80
2022/05/14 11:33:31;;;;;;;5.75;2.87;;;;;;;22.13;53.51;99031.27;1717237;82;21044;-78
2022/05/14 11:36:04;;;;;;;7.08;4.10;;;;;;;21.87;54.13;99036.67;1718626;82;20984;-79
2022/05/14 11:38:34;;;;;;;;;;;;;;;21.63;56.09;99046.73;1721239;82;21040;-80
2022/05/14 11:41:13;;;;;;;9.10;3.98;;;;;;;21.45;59.57;99052.02;1718229;83;20154;-78
2022/05/14 11:43:49;;;;;;;13.38;4.78;;;;;;;21.26;60.56;99051.94;1716708;82;21005;-79
2022/05/14 11:46:33;;;;;;;11.10;3.55;;;;;;;21.07;59.47;99040.98;1718519;82;21402;-78
2022/05/14 11:49:25;;;;;;;11.38;4.40;;;;;;;20.94;61.38;99030.39;1718391;82;21607;-78
2022/05/14 11:52:20;;;;;;;11.05;4.10;;;;;;;20.75;64.08;99026.86;1718520;82;21563;-80
2022/05/14 11:55:10;;;;;;;7.42;3.60;;;;;;;20.71;65.69;99028.02;1718179;83;21044;-79
2022/05/14 11:57:51;;;;;;;7.08;3.30;;;;;;;20.84;63.38;99022.25;1694908;82;22274;-79
2022/05/14 12:00:32;;;;;;;6.53;3.30;;;;;;;20.92;64.56;99024.86;1725681;83;21113;-78
2022/05/14 12:03:23;;;;;;;11.25;3.83;;;;;;;21.07;66.53;99023.80;1727913;83;21009;-78
2022/05/14 12:05:58;;;;;;;10.18;3.65;;;;;;;21.18;66.02;99030.97;1723426;83;20994;-79
2022/05/14 12:08:54;;;;;;;7.28;3.47;;;;;;;21.25;64.12;99038.38;1720218;83;21033;-79